Time;durP1;ratioP1;P1;durP2;ratioP2;P2;SDS_P1;SDS_P2;PMS_P1;PMS_P2;Temp;Humidity;BMP_temperature;BMP_pressure;BME280_temperature;BME280_humidity;BME280_pressure;Samples;Min_cycle;Max_cycle;Signal;HPM_P1;HPM_P2
2023/06/02 00:00:39;;;;;;;4.03;3.70;;;;;;;;;;5068797;28;20459;-43
2023/06/02 00:03:06;;;;;;;7.83;3.97;;;;;;;;;;5072932;28;20416;-43
2023/06/02 00:05:32;;;;;;;6.30;3.40;;;;;;;;;;5074072;28;20496;-44
2023/06/02 00:07:58;;;;;;;7.57;3.67;;;;;;;;;;5069875;28;20791;-43
2023/06/02 00:10:24;;;;;;;4.93;3.80;;;;;;;;;;5068268;28;20436;-43
2023/06/02 00:12:51;;;;;;;4.47;3.90;;;;;;;;;;5073446;28;20554;-44
2023/06/02 00:15:17;;;;;;;4.93;4.43;;;;;;;;;;5072131;28;20474;-43
2023/06/02 00:17:43;;;;;;;4.40;3.87;;;;;;;;;;5072031;28;20416;-43
2023/06/02 00:20:12;;;;;;;5.80;3.70;;;;;;;;;;5073496;28;20420;-44
2023/06/02 00:22:38;;;;;;;4.17;3.80;;;;;;;;;;5069536;28;20409;-44
2023/06/02 00:25:05;;;;;;;5.90;4.10;;;;;;;;;;5073443;28;21014;-43
2023/06/02 00:27:31;;;;;;;4.57;4.23;;;;;;;;;;5066359;28;20853;-43
2023/06/02 00:29:57;;;;;;;13.10;5.43;;;;;;;;;;5073244;28;20443;-43
2023/06/02 00:32:23;;;;;;;9.87;5.07;;;;;;;;;;5070122;28;20827;-43
2023/06/02 00:34:49;;;;;;;6.07;4.27;;;;;;;;;;5068792;28;20463;-43
2023/06/02 00:37:15;;;;;;;4.17;3.77;;;;;;;;;;5071962;28;20407;-43
2023/06/02 00:39:41;;;;;;;8.60;3.70;;;;;;;;;;5069191;28;20812;-44
2023/06/02 00:42:07;;;;;;;7.47;4.00;;;;;;;;;;5067421;28;20423;-44
2023/06/02 00:44:33;;;;;;;9.83;4.37;;;;;;;;;;5074129;28;20498;-44
2023/06/02 00:46:59;;;;;;;9.47;3.77;;;;;;;;;;5071030;28;20522;-44
2023/06/02 00:49:25;;;;;;;7.07;4.20;;;;;;;;;;5069375;28;20416;-44
2023/06/02 00:51:52;;;;;;;6.10;4.67;;;;;;;;;;5067917;28;20463;-44
2023/06/02 00:54:19;;;;;;;10.23;4.27;;;;;;;;;;5071862;28;20416;-44
2023/06/02 00:56:46;;;;;;;5.97;4.50;;;;;;;;;;5072384;28;20399;-44
2023/06/02 00:59:13;;;;;;;10.10;3.83;;;;;;;;;;5072879;28;20402;-44
2023/06/02 01:01:39;;;;;;;12.27;4.10;;;;;;;;;;5069222;28;20527;-44
2023/06/02 01:04:05;;;;;;;9.73;4.13;;;;;;;;;;5068344;28;20423;-44
2023/06/02 01:06:37;;;;;;;7.97;4.50;;;;;;;;;;5066270;28;20410;-44
2023/06/02 01:09:04;;;;;;;6.87;4.50;;;;;;;;;;5065660;28;20419;-44
2023/06/02 01:11:30;;;;;;;9.67;3.53;;;;;;;;;;5072268;28;20461;-44
2023/06/02 01:13:57;;;;;;;4.97;3.60;;;;;;;;;;5068449;28;20505;-44
2023/06/02 01:16:23;;;;;;;10.77;4.13;;;;;;;;;;5069500;28;20458;-44
2023/06/02 01:18:51;;;;;;;10.30;4.33;;;;;;;;;;5071293;28;20438;-43
2023/06/02 01:21:22;;;;;;;5.37;3.67;;;;;;;;;;5072270;28;20444;-44
2023/06/02 01:23:50;;;;;;;7.97;4.13;;;;;;;;;;5063860;28;20497;-44
2023/06/02 01:26:16;;;;;;;8.40;4.33;;;;;;;;;;5064265;28;20475;-44
2023/06/02 01:28:42;;;;;;;9.83;3.63;;;;;;;;;;5064453;28;20423;-44
2023/06/02 01:31:12;;;;;;;9.40;4.47;;;;;;;;;;5068869;28;20469;-44
2023/06/02 01:33:38;;;;;;;10.50;3.80;;;;;;;;;;5067338;28;20553;-43
2023/06/02 01:36:04;;;;;;;5.90;4.07;;;;;;;;;;5072016;28;20480;-44
2023/06/02 01:38:31;;;;;;;4.43;3.83;;;;;;;;;;5063709;28;20405;-43
2023/06/02 01:40:58;;;;;;;10.70;4.40;;;;;;;;;;5063540;28;20940;-44
2023/06/02 01:43:25;;;;;;;7.50;4.20;;;;;;;;;;5063536;28;20429;-44
2023/06/02 01:45:51;;;;;;;10.87;4.77;;;;;;;;;;5063739;28;20442;-44
2023/06/02 01:48:17;;;;;;;9.77;4.47;;;;;;;;;;5067524;28;20472;-44
2023/06/02 01:50:44;;;;;;;5.67;4.33;;;;;;;;;;5068157;28;20439;-44
2023/06/02 01:53:10;;;;;;;14.13;4.80;;;;;;;;;;5063198;28;20450;-44
2023/06/02 01:55:36;;;;;;;6.47;4.17;;;;;;;;;;5063512;28;20437;-44
2023/06/02 01:58:03;;;;;;;6.97;4.67;;;;;;;;;;5063487;28;20405;-44
2023/06/02 02:00:29;;;;;;;5.10;3.93;;;;;;;;;;5063462;28;20429;-44
2023/06/02 02:02:55;;;;;;;5.03;4.13;;;;;;;;;;5067378;28;20831;-44
2023/06/02 02:05:21;;;;;;;6.70;4.23;;;;;;;;;;5067472;28;20467;-44
2023/06/02 02:07:47;;;;;;;10.67;4.43;;;;;;;;;;5071068;28;20407;-44
2023/06/02 02:10:14;;;;;;;4.73;4.33;;;;;;;;;;5062870;28;20429;-44
2023/06/02 02:12:40;;;;;;;10.70;4.00;;;;;;;;;;5067315;28;20450;-44
2023/06/02 02:15:07;;;;;;;8.30;4.30;;;;;;;;;;5063396;28;20487;-43
2023/06/02 02:17:33;;;;;;;6.90;4.50;;;;;;;;;;5063059;28;20409;-44
2023/06/02 02:20:00;;;;;;;8.70;4.63;;;;;;;;;;5063089;28;20439;-43
2023/06/02 02:22:26;;;;;;;12.13;4.40;;;;;;;;;;5065529;28;20417;-44
2023/06/02 02:24:52;;;;;;;7.33;4.00;;;;;;;;;;5060763;28;20421;-44
2023/06/02 02:27:18;;;;;;;5.60;4.60;;;;;;;;;;5071641;28;20406;-44
2023/06/02 02:29:45;;;;;;;10.50;4.57;;;;;;;;;;5071385;28;20505;-44
2023/06/02 02:32:11;;;;;;;9.37;4.30;;;;;;;;;;5063152;28;20469;-44
2023/06/02 02:34:39;;;;;;;5.43;4.43;;;;;;;;;;5070536;28;20487;-44
2023/06/02 02:37:06;;;;;;;6.93;4.13;;;;;;;;;;5070512;28;20438;-44
2023/06/02 02:39:33;;;;;;;5.60;3.90;;;;;;;;;;5062924;28;20506;-44
2023/06/02 02:42:00;;;;;;;5.40;4.10;;;;;;;;;;5063003;28;20507;-43
2023/06/02 02:44:26;;;;;;;7.37;5.00;;;;;;;;;;5065484;28;20430;-43
2023/06/02 02:46:52;;;;;;;6.13;4.50;;;;;;;;;;5067687;28;20420;-44
2023/06/02 02:49:17;;;;;;;8.47;4.70;;;;;;;;;;5064018;28;20470;-43
2023/06/02 02:51:43;;;;;;;11.47;4.73;;;;;;;;;;5063000;28;20456;-44
2023/06/02 02:54:09;;;;;;;11.63;5.53;;;;;;;;;;5062985;28;20872;-44
2023/06/02 02:56:36;;;;;;;9.27;4.70;;;;;;;;;;5062890;28;20900;-44
2023/06/02 02:59:02;;;;;;;12.57;4.63;;;;;;;;;;5062855;28;20448;-44
2023/06/02 03:01:29;;;;;;;8.70;5.30;;;;;;;;;;5065080;28;20959;-44
2023/06/02 03:03:56;;;;;;;13.00;5.33;;;;;;;;;;5066573;28;20437;-44
2023/06/02 03:06:28;;;;;;;5.17;4.00;;;;;;;;;;5059337;28;20408;-44
2023/06/02 03:08:54;;;;;;;8.13;4.87;;;;;;;;;;5067549;28;20499;-43
2023/06/02 03:11:21;;;;;;;4.73;4.23;;;;;;;;;;5064127;28;21014;-44
2023/06/02 03:13:47;;;;;;;6.67;4.27;;;;;;;;;;5062058;28;20459;-44
2023/06/02 03:16:13;;;;;;;9.73;5.80;;;;;;;;;;5069694;28;20408;-44
2023/06/02 03:18:39;;;;;;;8.53;4.50;;;;;;;;;;5057748;28;20501;-44
2023/06/02 03:21:06;;;;;;;5.47;4.50;;;;;;;;;;5059899;28;20497;-44
2023/06/02 03:23:32;;;;;;;5.90;4.83;;;;;;;;;;5065889;28;20402;-44
2023/06/02 03:26:00;;;;;;;7.70;4.40;;;;;;;;;;5051751;28;20455;-43
2023/06/02 03:28:26;;;;;;;11.20;5.20;;;;;;;;;;5071207;28;20802;-44
2023/06/02 03:30:52;;;;;;;5.77;4.17;;;;;;;;;;5068952;28;20438;-44
2023/06/02 03:33:18;;;;;;;6.90;4.47;;;;;;;;;;5073152;28;20566;-44
2023/06/02 03:35:44;;;;;;;12.43;3.83;;;;;;;;;;5073717;28;20861;-44
2023/06/02 03:38:09;;;;;;;13.47;4.13;;;;;;;;;;5064253;28;20422;-44
2023/06/02 03:40:35;;;;;;;5.60;4.20;;;;;;;;;;5071599;28;20434;-44
2023/06/02 03:43:01;;;;;;;5.90;4.70;;;;;;;;;;5073035;28;20464;-44
2023/06/02 03:45:27;;;;;;;8.80;4.80;;;;;;;;;;5069104;28;20846;-44
2023/06/02 03:47:53;;;;;;;12.83;5.43;;;;;;;;;;5067132;28;20812;-44
2023/06/02 03:50:19;;;;;;;12.90;5.00;;;;;;;;;;5074033;28;20828;-44
2023/06/02 03:52:45;;;;;;;13.00;5.30;;;;;;;;;;5072018;28;20492;-44
2023/06/02 03:55:11;;;;;;;10.20;5.27;;;;;;;;;;5070747;28;20416;-44
2023/06/02 03:57:38;;;;;;;12.00;6.33;;;;;;;;;;5069935;28;20416;-44
2023/06/02 04:00:06;;;;;;;10.70;5.57;;;;;;;;;;5071980;28;20429;-43
2023/06/02 04:02:32;;;;;;;7.50;5.67;;;;;;;;;;5067651;28;20503;-44
2023/06/02 04:04:57;;;;;;;7.63;5.00;;;;;;;;;;5073289;28;20500;-44
2023/06/02 04:07:24;;;;;;;9.37;5.40;;;;;;;;;;5072094;28;20416;-43
2023/06/02 04:09:50;;;;;;;8.33;4.80;;;;;;;;;;5070278;28;20442;-44
2023/06/02 04:12:16;;;;;;;7.33;4.77;;;;;;;;;;5068499;28;20453;-44
2023/06/02 04:14:42;;;;;;;16.83;5.90;;;;;;;;;;5067335;28;20393;-44
2023/06/02 04:17:08;;;;;;;8.60;5.33;;;;;;;;;;5073281;28;20416;-43
2023/06/02 04:19:34;;;;;;;8.57;5.20;;;;;;;;;;5073288;28;20493;-43
2023/06/02 04:22:00;;;;;;;7.83;4.07;;;;;;;;;;5072344;28;20497;-43
2023/06/02 04:24:26;;;;;;;7.70;4.87;;;;;;;;;;5069972;28;20407;-43
2023/06/02 04:26:52;;;;;;;9.97;4.90;;;;;;;;;;5073419;28;20416;-43
2023/06/02 04:29:19;;;;;;;13.17;5.10;;;;;;;;;;5066734;28;20418;-44
2023/06/02 04:31:47;;;;;;;11.00;5.13;;;;;;;;;;5068279;28;20468;-44
2023/06/02 04:34:13;;;;;;;9.83;4.80;;;;;;;;;;5072129;28;20429;-43
2023/06/02 04:36:40;;;;;;;19.90;5.60;;;;;;;;;;5072442;28;20433;-43
2023/06/02 04:39:07;;;;;;;14.37;5.47;;;;;;;;;;5073202;28;20416;-43
2023/06/02 04:41:33;;;;;;;12.03;5.57;;;;;;;;;;5069121;28;20452;-43
2023/06/02 04:44:00;;;;;;;10.63;4.87;;;;;;;;;;5070711;28;20474;-43
2023/06/02 04:46:26;;;;;;;11.90;5.60;;;;;;;;;;5067087;28;20412;-43
2023/06/02 04:48:53;;;;;;;9.00;4.53;;;;;;;;;;5072956;28;20500;-43
2023/06/02 04:51:19;;;;;;;11.87;5.50;;;;;;;;;;5072857;28;20441;-43
2023/06/02 04:53:45;;;;;;;8.17;5.20;;;;;;;;;;5069646;28;20727;-43
2023/06/02 04:56:11;;;;;;;14.33;5.97;;;;;;;;;;5067842;28;20954;-44
2023/06/02 04:58:37;;;;;;;9.70;4.73;;;;;;;;;;5071573;28;20429;-44
2023/06/02 05:01:04;;;;;;;9.33;4.30;;;;;;;;;;5070105;28;20422;-43
2023/06/02 05:03:29;;;;;;;11.23;5.07;;;;;;;;;;5067100;28;20779;-43
2023/06/02 05:05:56;;;;;;;9.67;4.93;;;;;;;;;;5072627;28;20422;-43
2023/06/02 05:08:21;;;;;;;13.10;5.43;;;;;;;;;;5069426;28;20410;-44
2023/06/02 05:10:48;;;;;;;13.93;5.50;;;;;;;;;;5067765;28;20484;-44
2023/06/02 05:13:14;;;;;;;12.03;5.10;;;;;;;;;;5065677;28;20498;-43
2023/06/02 05:15:40;;;;;;;10.93;4.83;;;;;;;;;;5065002;28;20429;-43
2023/06/02 05:18:07;;;;;;;18.03;5.10;;;;;;;;;;5071891;28;20405;-44
2023/06/02 05:20:33;;;;;;;10.73;4.87;;;;;;;;;;5070977;28;20455;-44
2023/06/02 05:22:59;;;;;;;9.77;6.30;;;;;;;;;;5070679;28;20518;-44
2023/06/02 05:25:24;;;;;;;16.07;4.93;;;;;;;;;;5068683;28;20428;-43
2023/06/02 05:27:50;;;;;;;9.70;6.10;;;;;;;;;;5065710;28;20428;-44
2023/06/02 05:30:16;;;;;;;7.90;5.27;;;;;;;;;;5063419;28;20441;-43
2023/06/02 05:32:42;;;;;;;11.40;5.37;;;;;;;;;;5071889;28;20464;-44
2023/06/02 05:35:08;;;;;;;8.00;4.23;;;;;;;;;;5069155;28;20411;-44
2023/06/02 05:37:35;;;;;;;13.13;4.80;;;;;;;;;;5072248;28;20415;-44
2023/06/02 05:40:00;;;;;;;11.50;4.77;;;;;;;;;;5071705;28;20469;-43
2023/06/02 05:42:27;;;;;;;11.90;5.17;;;;;;;;;;5065889;28;20825;-43
2023/06/02 05:44:53;;;;;;;8.40;4.50;;;;;;;;;;5064211;28;20417;-43
2023/06/02 05:47:19;;;;;;;12.33;4.77;;;;;;;;;;5071915;28;20419;-44
2023/06/02 05:49:45;;;;;;;11.93;4.90;;;;;;;;;;5069081;28;20390;-44
2023/06/02 05:52:11;;;;;;;24.33;5.30;;;;;;;;;;5067037;28;21076;-44
2023/06/02 05:54:37;;;;;;;13.33;4.40;;;;;;;;;;5066989;28;20402;-43
2023/06/02 05:57:03;;;;;;;10.33;4.50;;;;;;;;;;5068837;28;20420;-44
2023/06/02 05:59:28;;;;;;;8.73;4.47;;;;;;;;;;5064952;28;20416;-44
2023/06/02 06:01:54;;;;;;;6.07;4.33;;;;;;;;;;5070300;28;20431;-44
2023/06/02 06:04:20;;;;;;;8.70;4.17;;;;;;;;;;5071208;28;20425;-44
2023/06/02 06:06:46;;;;;;;7.27;4.40;;;;;;;;;;5067003;28;20415;-43
2023/06/02 06:09:12;;;;;;;6.93;4.03;;;;;;;;;;5065129;28;20522;-44
2023/06/02 06:11:38;;;;;;;16.47;5.00;;;;;;;;;;5064362;28;20462;-44
2023/06/02 06:14:07;;;;;;;11.43;4.23;;;;;;;;;;5069970;28;21293;-44
2023/06/02 06:16:33;;;;;;;14.10;5.20;;;;;;;;;;5070296;28;20407;-43
2023/06/02 06:19:00;;;;;;;7.07;4.27;;;;;;;;;;5070294;28;20770;-44
2023/06/02 06:21:26;;;;;;;7.00;4.00;;;;;;;;;;5067473;28;20987;-43
2023/06/02 06:23:52;;;;;;;6.93;4.47;;;;;;;;;;5065446;28;20498;-44
2023/06/02 06:26:19;;;;;;;11.13;5.23;;;;;;;;;;5064014;28;20449;-44
2023/06/02 06:28:45;;;;;;;12.60;5.30;;;;;;;;;;5071668;28;20410;-44
2023/06/02 06:31:11;;;;;;;12.53;4.60;;;;;;;;;;5068201;28;20469;-44
2023/06/02 06:33:37;;;;;;;10.03;4.37;;;;;;;;;;5067594;28;20517;-44
2023/06/02 06:36:03;;;;;;;13.27;5.00;;;;;;;;;;5070480;28;20414;-44
2023/06/02 06:38:29;;;;;;;8.87;4.23;;;;;;;;;;5065759;28;20420;-44
2023/06/02 06:40:55;;;;;;;6.83;4.20;;;;;;;;;;5064696;28;20516;-44
2023/06/02 06:43:21;;;;;;;12.53;5.00;;;;;;;;;;5072304;28;20666;-44
2023/06/02 06:45:47;;;;;;;7.20;4.50;;;;;;;;;;5069159;28;20908;-44
2023/06/02 06:48:13;;;;;;;8.93;5.87;;;;;;;;;;5067549;28;20411;-43
2023/06/02 06:50:39;;;;;;;12.80;4.83;;;;;;;;;;5071248;28;20413;-44
2023/06/02 06:53:05;;;;;;;8.67;4.17;;;;;;;;;;5069192;28;20480;-44
2023/06/02 06:55:31;;;;;;;11.57;4.73;;;;;;;;;;5066057;28;20447;-44
2023/06/02 06:57:57;;;;;;;10.00;5.27;;;;;;;;;;5069309;28;20423;-44
2023/06/02 07:00:23;;;;;;;9.20;4.43;;;;;;;;;;5069615;28;20928;-44
2023/06/02 07:02:51;;;;;;;9.83;4.67;;;;;;;;;;5067244;28;20431;-44
2023/06/02 07:05:17;;;;;;;8.07;4.80;;;;;;;;;;5068551;28;20468;-44
2023/06/02 07:07:43;;;;;;;11.80;5.30;;;;;;;;;;5068155;28;20406;-44
2023/06/02 07:10:10;;;;;;;10.93;4.77;;;;;;;;;;5074723;28;20486;-44
2023/06/02 07:12:36;;;;;;;5.80;4.17;;;;;;;;;;5073863;28;20476;-44
2023/06/02 07:15:03;;;;;;;6.20;4.67;;;;;;;;;;5073786;28;20435;-44
2023/06/02 07:17:29;;;;;;;13.17;4.80;;;;;;;;;;5071409;28;20409;-43
2023/06/02 07:19:55;;;;;;;10.80;4.93;;;;;;;;;;5069535;28;20417;-44
2023/06/02 07:22:21;;;;;;;9.53;4.30;;;;;;;;;;5067561;28;20474;-44
2023/06/02 07:24:47;;;;;;;9.13;4.57;;;;;;;;;;5065947;28;20821;-44
2023/06/02 07:27:14;;;;;;;15.10;4.03;;;;;;;;;;5072824;28;20499;-43
2023/06/02 07:29:40;;;;;;;10.27;4.23;;;;;;;;;;5073673;28;20520;-43
2023/06/02 07:32:08;;;;;;;8.00;4.20;;;;;;;;;;5074352;28;20861;-44
2023/06/02 07:34:34;;;;;;;17.00;4.20;;;;;;;;;;5069547;28;20789;-44
2023/06/02 07:37:02;;;;;;;5.97;3.80;;;;;;;;;;5074113;28;20408;-44
2023/06/02 07:39:28;;;;;;;11.03;4.67;;;;;;;;;;5066076;28;20777;-44
2023/06/02 07:41:54;;;;;;;7.40;4.13;;;;;;;;;;5074110;28;20438;-44
2023/06/02 07:44:20;;;;;;;8.70;4.50;;;;;;;;;;5070949;28;20832;-44
2023/06/02 07:46:47;;;;;;;12.67;4.50;;;;;;;;;;5069333;28;20471;-44
2023/06/02 07:49:13;;;;;;;11.10;3.90;;;;;;;;;;5072154;28;20375;-44
2023/06/02 07:51:39;;;;;;;10.37;4.60;;;;;;;;;;5069722;28;20476;-44
2023/06/02 07:54:05;;;;;;;8.63;3.63;;;;;;;;;;5070589;28;20416;-44
2023/06/02 07:56:31;;;;;;;4.83;3.63;;;;;;;;;;5068967;28;20476;-44
2023/06/02 07:58:57;;;;;;;11.90;4.40;;;;;;;;;;5069635;28;20539;-44
2023/06/02 08:01:23;;;;;;;8.10;3.87;;;;;;;;;;5068714;28;20438;-44
2023/06/02 08:03:49;;;;;;;11.70;4.60;;;;;;;;;;5070811;28;20499;-44
2023/06/02 08:06:15;;;;;;;9.47;4.27;;;;;;;;;;5073776;28;20409;-44
2023/06/02 08:08:44;;;;;;;9.73;3.00;;;;;;;;;;5070619;28;20387;-44
2023/06/02 08:11:10;;;;;;;8.10;3.60;;;;;;;;;;5065625;28;20456;-44
2023/06/02 08:13:36;;;;;;;12.83;3.63;;;;;;;;;;5066934;28;20425;-44
2023/06/02 08:16:02;;;;;;;7.53;4.00;;;;;;;;;;5065080;28;20805;-44
2023/06/02 08:18:28;;;;;;;8.30;3.80;;;;;;;;;;5073621;28;20388;-44
2023/06/02 08:20:54;;;;;;;7.60;3.83;;;;;;;;;;5070286;28;20403;-44
2023/06/02 08:23:20;;;;;;;8.60;3.77;;;;;;;;;;5071810;28;20466;-44
2023/06/02 08:25:47;;;;;;;8.53;4.10;;;;;;;;;;5070864;28;20406;-44
2023/06/02 08:28:13;;;;;;;10.70;3.93;;;;;;;;;;5073413;28;20394;-44
2023/06/02 08:30:41;;;;;;;9.07;5.70;;;;;;;;;;5071957;28;20454;-44
2023/06/02 08:33:10;;;;;;;10.73;7.10;;;;;;;;;;5071077;28;20967;-44
2023/06/02 08:35:36;;;;;;;14.53;9.30;;;;;;;;;;5070260;28;20447;-44
2023/06/02 08:38:03;;;;;;;16.33;9.80;;;;;;;;;;5068652;28;20473;-44
2023/06/02 08:40:35;;;;;;;16.80;9.57;;;;;;;;;;5066801;28;20434;-44
2023/06/02 08:43:03;;;;;;;19.73;10.03;;;;;;;;;;5071682;28;20427;-43
2023/06/02 08:45:29;;;;;;;16.83;9.60;;;;;;;;;;5069862;28;20485;-43
2023/06/02 08:47:57;;;;;;;17.67;8.70;;;;;;;;;;5073088;28;20385;-43
2023/06/02 08:50:43;;;;;;;10.80;7.60;;;;;;;;;;5072790;28;20766;-43
2023/06/02 08:53:11;;;;;;;15.33;8.97;;;;;;;;;;5072493;28;20466;-44
2023/06/02 08:55:39;;;;;;;15.07;8.63;;;;;;;;;;5071037;28;20398;-44
2023/06/02 08:58:05;;;;;;;17.23;10.37;;;;;;;;;;5069048;28;20888;-44
2023/06/02 09:00:32;;;;;;;11.10;8.90;;;;;;;;;;5070852;28;20434;-44
2023/06/02 09:02:58;;;;;;;11.30;7.03;;;;;;;;;;5067534;28;20425;-44
2023/06/02 09:05:24;;;;;;;9.20;5.70;;;;;;;;;;5070741;28;20382;-44
2023/06/02 09:08:06;;;;;;;13.63;6.13;;;;;;;;;;5069801;28;20906;-44
2023/06/02 09:10:32;;;;;;;10.17;5.80;;;;;;;;;;5067347;28;20931;-44
2023/06/02 09:12:58;;;;;;;7.17;5.40;;;;;;;;;;5064171;28;20465;-44
2023/06/02 09:15:25;;;;;;;8.70;5.83;;;;;;;;;;5072536;28;20422;-44
2023/06/02 09:17:51;;;;;;;13.83;5.40;;;;;;;;;;5069592;28;20382;-44
2023/06/02 09:20:17;;;;;;;6.43;4.67;;;;;;;;;;5067650;28;20511;-44
2023/06/02 09:22:56;;;;;;;9.87;4.83;;;;;;;;;;5066487;28;20412;-44
2023/06/02 09:25:26;;;;;;;4.93;4.30;;;;;;;;;;5061843;28;20414;-44
2023/06/02 09:27:53;;;;;;;6.87;4.67;;;;;;;;;;5069170;28;20422;-44
2023/06/02 09:30:19;;;;;;;9.93;4.77;;;;;;;;;;5070202;28;20484;-44
2023/06/02 09:33:17;;;;;;;7.73;4.70;;;;;;;;;;5070980;28;20463;-45
2023/06/02 09:35:45;;;;;;;8.73;4.80;;;;;;;;;;5063119;28;20911;-44
2023/06/02 09:38:12;;;;;;;10.70;4.80;;;;;;;;;;5073087;28;20416;-43
2023/06/02 09:40:42;;;;;;;9.40;4.87;;;;;;;;;;5066855;28;20910;-44
2023/06/02 09:43:10;;;;;;;5.80;3.77;;;;;;;;;;5059266;28;20425;-44
2023/06/02 09:45:48;;;;;;;6.63;5.00;;;;;;;;;;5062232;28;20420;-44
2023/06/02 09:48:17;;;;;;;7.27;4.50;;;;;;;;;;5071818;28;20447;-44
2023/06/02 09:50:43;;;;;;;7.80;4.40;;;;;;;;;;5057647;28;20436;-44
2023/06/02 09:53:11;;;;;;;8.30;5.20;;;;;;;;;;5068733;28;20529;-44
2023/06/02 09:55:38;;;;;;;6.20;4.53;;;;;;;;;;5051908;28;20406;-44
2023/06/02 09:58:07;;;;;;;5.20;4.20;;;;;;;;;;5051850;28;20396;-44
2023/06/02 10:00:35;;;;;;;5.70;3.97;;;;;;;;;;5063559;28;20977;-44
2023/06/02 10:03:02;;;;;;;10.20;4.97;;;;;;;;;;5071426;28;20428;-44
2023/06/02 10:05:28;;;;;;;8.03;4.00;;;;;;;;;;5059584;28;20409;-44
2023/06/02 10:08:08;;;;;;;10.60;5.70;;;;;;;;;;5051700;28;20420;-44
2023/06/02 10:10:41;;;;;;;5.77;4.37;;;;;;;;;;5051703;28;20437;-44
2023/06/02 10:13:19;;;;;;;8.63;4.53;;;;;;;;;;5051277;28;20544;-44
2023/06/02 10:15:57;;;;;;;10.43;4.67;;;;;;;;;;5051713;28;20413;-43
2023/06/02 10:18:50;;;;;;;6.90;5.47;;;;;;;;;;5051861;28;20416;-44
2023/06/02 10:21:34;;;;;;;9.77;5.70;;;;;;;;;;5051486;28;20868;-44
2023/06/02 10:24:00;;;;;;;5.97;4.80;;;;;;;;;;5054000;28;20787;-44
2023/06/02 10:26:32;;;;;;;5.23;4.33;;;;;;;;;;5071225;28;20405;-44
2023/06/02 10:29:00;;;;;;;7.67;4.20;;;;;;;;;;5051690;28;20420;-44
2023/06/02 10:31:32;;;;;;;7.70;4.90;;;;;;;;;;5066168;28;20825;-44
2023/06/02 10:33:59;;;;;;;10.63;5.70;;;;;;;;;;5071141;28;20423;-44
2023/06/02 10:36:26;;;;;;;12.97;5.80;;;;;;;;;;5071631;28;20418;-44
2023/06/02 10:38:52;;;;;;;5.63;4.50;;;;;;;;;;5073645;28;20416;-44
2023/06/02 10:41:21;;;;;;;10.67;5.17;;;;;;;;;;5075435;28;20525;-44
2023/06/02 10:44:06;;;;;;;13.17;6.00;;;;;;;;;;5075353;28;20478;-44
2023/06/02 10:46:32;;;;;;;6.40;5.27;;;;;;;;;;5075272;28;20418;-44
2023/06/02 10:48:58;;;;;;;11.27;5.33;;;;;;;;;;5075420;28;20393;-44
2023/06/02 10:51:24;;;;;;;6.87;5.07;;;;;;;;;;5075344;28;20957;-44
2023/06/02 10:54:02;;;;;;;10.33;5.87;;;;;;;;;;5075212;28;20868;-44
2023/06/02 10:56:40;;;;;;;11.20;5.93;;;;;;;;;;5075233;28;20789;-44
2023/06/02 10:59:06;;;;;;;10.40;5.67;;;;;;;;;;5074378;28;20938;-44
2023/06/02 11:01:46;;;;;;;12.63;5.70;;;;;;;;;;5074424;28;20831;-44
2023/06/02 11:04:28;;;;;;;8.73;5.03;;;;;;;;;;5075195;28;20416;-44
2023/06/02 11:07:15;;;;;;;17.33;6.67;;;;;;;;;;5074967;28;20488;-44
2023/06/02 11:09:44;;;;;;;10.03;5.77;;;;;;;;;;5072190;28;20903;-44
2023/06/02 11:12:10;;;;;;;10.13;6.07;;;;;;;;;;5062256;28;20458;-45
2023/06/02 11:14:55;;;;;;;9.70;5.70;;;;;;;;;;5069917;28;20457;-44
2023/06/02 11:17:30;;;;;;;18.23;6.50;;;;;;;;;;5068179;28;20498;-44
2023/06/02 11:19:57;;;;;;;12.67;6.40;;;;;;;;;;5074567;28;20771;-44
2023/06/02 11:22:23;;;;;;;11.00;6.00;;;;;;;;;;5074657;28;20412;-44
2023/06/02 11:24:50;;;;;;;9.60;5.37;;;;;;;;;;5071997;28;20411;-44
2023/06/02 11:27:17;;;;;;;9.80;5.97;;;;;;;;;;5074628;28;20412;-44
2023/06/02 11:29:44;;;;;;;15.30;5.77;;;;;;;;;;5067685;28;20438;-44
2023/06/02 11:32:11;;;;;;;8.70;5.80;;;;;;;;;;5058416;28;20451;-44
2023/06/02 11:34:37;;;;;;;12.57;6.40;;;;;;;;;;5063764;28;20416;-44
2023/06/02 11:37:16;;;;;;;11.53;6.87;;;;;;;;;;5075977;28;20522;-44
2023/06/02 11:39:49;;;;;;;10.27;5.93;;;;;;;;;;5070599;28;20784;-44
2023/06/02 11:42:15;;;;;;;12.23;5.13;;;;;;;;;;5054413;28;20419;-44
2023/06/02 11:44:50;;;;;;;8.40;4.77;;;;;;;;;;5054908;28;20424;-44
2023/06/02 11:47:20;;;;;;;7.90;6.03;;;;;;;;;;5053552;28;20409;-44
2023/06/02 11:49:47;;;;;;;6.70;4.87;;;;;;;;;;5053745;28;20423;-44
2023/06/02 11:52:13;;;;;;;10.53;5.00;;;;;;;;;;5068021;28;20451;-44
2023/06/02 11:54:50;;;;;;;7.43;5.17;;;;;;;;;;5074309;28;20786;-44
2023/06/02 11:57:25;;;;;;;14.40;5.10;;;;;;;;;;5073890;28;20412;-44
2023/06/02 12:00:06;;;;;;;10.37;5.30;;;;;;;;;;5072954;28;20431;-44
2023/06/02 12:02:32;;;;;;;11.50;4.93;;;;;;;;;;5053845;28;20416;-44
2023/06/02 12:04:58;;;;;;;11.30;5.07;;;;;;;;;;5072320;28;20450;-44
2023/06/02 12:07:27;;;;;;;12.23;5.50;;;;;;;;;;5073935;28;20485;-45
2023/06/02 12:09:53;;;;;;;8.33;5.10;;;;;;;;;;5073643;28;20419;-44
2023/06/02 12:12:20;;;;;;;10.70;5.20;;;;;;;;;;5073608;28;20454;-45
2023/06/02 12:14:46;;;;;;;7.10;5.17;;;;;;;;;;5066234;28;20813;-44
2023/06/02 12:17:12;;;;;;;13.60;5.80;;;;;;;;;;5072834;28;20433;-44
2023/06/02 12:19:38;;;;;;;10.20;5.60;;;;;;;;;;5066654;28;20556;-43
2023/06/02 12:22:13;;;;;;;4.90;4.40;;;;;;;;;;5067600;28;20408;-44
2023/06/02 12:24:39;;;;;;;8.43;5.47;;;;;;;;;;5070043;28;20412;-43
2023/06/02 12:27:07;;;;;;;6.17;4.60;;;;;;;;;;5069040;28;20464;-44
2023/06/02 12:29:33;;;;;;;7.00;5.37;;;;;;;;;;5067607;28;20393;-44
2023/06/02 12:32:03;;;;;;;11.10;5.83;;;;;;;;;;5071111;28;20459;-45
2023/06/02 12:34:29;;;;;;;7.20;3.93;;;;;;;;;;5073303;28;20421;-44
2023/06/02 12:36:56;;;;;;;10.13;4.50;;;;;;;;;;5072916;28;20499;-44
2023/06/02 12:39:23;;;;;;;10.73;5.10;;;;;;;;;;5067544;28;20927;-44
2023/06/02 12:41:49;;;;;;;12.07;5.13;;;;;;;;;;5066146;28;20759;-44
2023/06/02 12:44:15;;;;;;;14.50;5.77;;;;;;;;;;5068729;28;20831;-44
2023/06/02 12:46:41;;;;;;;8.90;4.73;;;;;;;;;;5072328;28;20943;-44
2023/06/02 12:49:09;;;;;;;14.10;5.30;;;;;;;;;;5067141;28;20899;-44
2023/06/02 12:51:35;;;;;;;8.57;5.30;;;;;;;;;;5065888;28;20483;-44
2023/06/02 12:54:01;;;;;;;5.03;4.50;;;;;;;;;;5066015;28;20420;-44
2023/06/02 12:56:27;;;;;;;10.13;4.40;;;;;;;;;;5064889;28;20405;-44
2023/06/02 12:58:53;;;;;;;9.77;4.10;;;;;;;;;;5068208;28;20438;-44
2023/06/02 13:01:21;;;;;;;10.53;5.40;;;;;;;;;;5070137;28;20468;-44
2023/06/02 13:03:50;;;;;;;6.77;4.77;;;;;;;;;;5064455;28;20832;-44
2023/06/02 13:06:17;;;;;;;9.60;4.73;;;;;;;;;;5069576;28;20443;-44
2023/06/02 13:08:43;;;;;;;7.57;4.20;;;;;;;;;;5071964;28;20403;-44
2023/06/02 13:11:10;;;;;;;8.73;3.90;;;;;;;;;;5065038;28;20432;-44
2023/06/02 13:13:36;;;;;;;6.60;3.87;;;;;;;;;;5072277;28;20458;-44
2023/06/02 13:16:01;;;;;;;7.27;4.77;;;;;;;;;;5070345;28;20420;-44
2023/06/02 13:18:27;;;;;;;11.23;4.87;;;;;;;;;;5071156;28;20467;-44
2023/06/02 13:20:54;;;;;;;8.80;4.67;;;;;;;;;;5072330;28;20433;-44
2023/06/02 13:23:21;;;;;;;7.30;4.20;;;;;;;;;;5072350;28;20474;-44
2023/06/02 13:25:46;;;;;;;8.57;4.47;;;;;;;;;;5071406;28;20400;-44
2023/06/02 13:28:12;;;;;;;16.10;5.23;;;;;;;;;;5052567;28;20412;-44
2023/06/02 13:30:38;;;;;;;10.20;4.73;;;;;;;;;;5052301;28;20938;-44
2023/06/02 13:33:05;;;;;;;8.60;4.43;;;;;;;;;;5065280;28;20472;-44
2023/06/02 13:35:31;;;;;;;10.97;5.40;;;;;;;;;;5072347;28;20414;-44
2023/06/02 13:37:57;;;;;;;7.57;4.70;;;;;;;;;;5072232;28;20450;-45
2023/06/02 13:40:23;;;;;;;8.60;4.83;;;;;;;;;;5071262;28;20441;-44
2023/06/02 13:42:49;;;;;;;6.83;4.40;;;;;;;;;;5069656;28;20436;-44
2023/06/02 13:45:15;;;;;;;6.30;4.20;;;;;;;;;;5072020;28;20404;-44
2023/06/02 13:47:41;;;;;;;9.80;4.67;;;;;;;;;;5068004;28;20469;-44
2023/06/02 13:50:07;;;;;;;8.80;3.90;;;;;;;;;;5074288;22;20610;-44
2023/06/02 13:52:33;;;;;;;5.57;4.17;;;;;;;;;;5076820;28;20831;-42
2023/06/02 13:54:59;;;;;;;13.63;4.40;;;;;;;;;;5072289;28;20412;-43
2023/06/02 13:57:25;;;;;;;7.47;4.50;;;;;;;;;;5070345;28;20406;-43
2023/06/02 13:59:51;;;;;;;13.20;4.80;;;;;;;;;;5068372;28;20426;-44
2023/06/02 14:02:17;;;;;;;8.70;4.27;;;;;;;;;;5071051;28;20941;-44
2023/06/02 14:04:43;;;;;;;8.20;4.37;;;;;;;;;;5072463;28;20749;-44
2023/06/02 14:07:10;;;;;;;7.90;3.60;;;;;;;;;;5065206;28;20412;-43
2023/06/02 14:09:37;;;;;;;9.27;3.80;;;;;;;;;;5072428;28;20435;-44
2023/06/02 14:12:03;;;;;;;10.83;3.60;;;;;;;;;;5061590;28;20453;-44
2023/06/02 14:14:31;;;;;;;8.93;3.90;;;;;;;;;;5070303;28;20420;-44
2023/06/02 14:16:57;;;;;;;5.23;3.07;;;;;;;;;;5071345;28;20455;-45
2023/06/02 14:19:23;;;;;;;6.13;3.23;;;;;;;;;;5067548;28;20913;-44
2023/06/02 14:21:49;;;;;;;11.90;4.37;;;;;;;;;;5069835;28;20432;-44
2023/06/02 14:24:16;;;;;;;8.17;3.87;;;;;;;;;;5071413;28;20946;-43
2023/06/02 14:26:42;;;;;;;5.43;3.37;;;;;;;;;;5069521;28;20918;-44
2023/06/02 14:29:08;;;;;;;7.47;4.10;;;;;;;;;;5067917;28;20500;-43
2023/06/02 14:31:34;;;;;;;6.20;3.87;;;;;;;;;;5066035;28;20432;-44
2023/06/02 14:34:00;;;;;;;12.83;3.67;;;;;;;;;;5064238;28;20448;-44
2023/06/02 14:36:26;;;;;;;9.37;3.73;;;;;;;;;;5071664;28;20900;-43
2023/06/02 14:38:53;;;;;;;6.17;3.17;;;;;;;;;;5069339;28;20456;-44